sensor_id;sensor_type;location;lat;lon;timestamp;pressure;altitude;pressure_sealevel;temperature;humidity
82379;BME280;72008;48.140;11.614;2024-01-10T00:00:53;96087.66;;;-3.23;64.54
82379;BME280;72008;48.140;11.614;2024-01-10T00:01:54;96091.31;;;-3.29;65.38
82379;BME280;72008;48.140;11.614;2024-01-10T00:02:54;96085.72;;;-3.27;64.46
82379;BME280;72008;48.140;11.614;2024-01-10T00:03:55;96095.16;;;-3.08;65.35
82379;BME280;72008;48.140;11.614;2024-01-10T00:04:55;96094.50;;;-3.15;64.76
82379;BME280;72008;48.140;11.614;2024-01-10T00:05:55;96093.13;;;-3.46;64.62
82379;BME280;72008;48.140;11.614;2024-01-10T00:06:56;96096.81;;;-3.35;65.77
82379;BME280;72008;48.140;11.614;2024-01-10T00:07:56;96091.53;;;-3.47;65.25
82379;BME280;72008;48.140;11.614;2024-01-10T00:08:57;96094.41;;;-3.37;65.18
82379;BME280;72008;48.140;11.614;2024-01-10T00:09:57;96085.91;;;-3.17;65.92
82379;BME280;72008;48.140;11.614;2024-01-10T00:10:57;96088.69;;;-2.95;65.91
82379;BME280;72008;48.140;11.614;2024-01-10T00:11:58;96092.09;;;-3.00;64.14
82379;BME280;72008;48.140;11.614;2024-01-10T00:12:58;96092.47;;;-3.08;65.44
82379;BME280;72008;48.140;11.614;2024-01-10T00:13:59;96092.84;;;-3.04;65.33
82379;BME280;72008;48.140;11.614;2024-01-10T00:14:59;96094.94;;;-3.06;64.36
82379;BME280;72008;48.140;11.614;2024-01-10T00:15:59;96091.13;;;-2.93;65.80
82379;BME280;72008;48.140;11.614;2024-01-10T00:17:00;96089.09;;;-2.86;64.91
82379;BME280;72008;48.140;11.614;2024-01-10T00:18:00;96092.34;;;-2.84;64.67
82379;BME280;72008;48.140;11.614;2024-01-10T00:19:01;96086.66;;;-2.88;64.79
82379;BME280;72008;48.140;11.614;2024-01-10T00:20:01;96088.94;;;-2.97;64.64
82379;BME280;72008;48.140;11.614;2024-01-10T00:21:02;96089.00;;;-3.08;65.35
82379;BME280;72008;48.140;11.614;2024-01-10T00:22:02;96090.88;;;-2.92;65.13
82379;BME280;72008;48.140;11.614;2024-01-10T00:23:03;96086.84;;;-2.78;65.02
82379;BME280;72008;48.140;11.614;2024-01-10T00:24:04;96088.69;;;-2.61;65.90
82379;BME280;72008;48.140;11.614;2024-01-10T00:25:04;96081.44;;;-2.61;65.35
82379;BME280;72008;48.140;11.614;2024-01-10T00:26:05;96084.63;;;-2.64;65.41
82379;BME280;72008;48.140;11.614;2024-01-10T00:27:05;96078.06;;;-2.73;65.11
82379;BME280;72008;48.140;11.614;2024-01-10T00:28:06;96080.50;;;-2.71;65.65
82379;BME280;72008;48.140;11.614;2024-01-10T00:29:06;96081.88;;;-2.69;65.80
82379;BME280;72008;48.140;11.614;2024-01-10T00:30:07;96080.00;;;-2.68;65.48
82379;BME280;72008;48.140;11.614;2024-01-10T00:31:08;96079.75;;;-2.67;66.05
82379;BME280;72008;48.140;11.614;2024-01-10T00:32:08;96083.19;;;-2.71;66.01
82379;BME280;72008;48.140;11.614;2024-01-10T00:33:08;96085.91;;;-2.66;66.30
82379;BME280;72008;48.140;11.614;2024-01-10T00:34:09;96080.00;;;-2.68;65.38
82379;BME280;72008;48.140;11.614;2024-01-10T00:35:09;96085.50;;;-2.58;65.59
82379;BME280;72008;48.140;11.614;2024-01-10T00:36:10;96081.13;;;-2.47;65.24
82379;BME280;72008;48.140;11.614;2024-01-10T00:37:10;96091.09;;;-2.43;65.66
82379;BME280;72008;48.140;11.614;2024-01-10T00:38:10;96086.50;;;-2.47;66.55
82379;BME280;72008;48.140;11.614;2024-01-10T00:39:11;96084.19;;;-2.39;66.53
82379;BME280;72008;48.140;11.614;2024-01-10T00:40:11;96087.59;;;-2.26;66.80
82379;BME280;72008;48.140;11.614;2024-01-10T00:41:12;96081.91;;;-2.30;65.24
82379;BME280;72008;48.140;11.614;2024-01-10T00:42:12;96089.84;;;-2.18;66.75
82379;BME280;72008;48.140;11.614;2024-01-10T00:43:13;96085.97;;;-2.27;65.38
82379;BME280;72008;48.140;11.614;2024-01-10T00:44:13;96085.97;;;-2.27;65.57
82379;BME280;72008;48.140;11.614;2024-01-10T00:45:14;96092.34;;;-2.50;66.70
82379;BME280;72008;48.140;11.614;2024-01-10T00:46:14;96084.28;;;-2.34;66.04
82379;BME280;72008;48.140;11.614;2024-01-10T00:47:15;96084.53;;;-2.35;66.67
82379;BME280;72008;48.140;11.614;2024-01-10T00:48:15;96080.47;;;-2.38;67.07
82379;BME280;72008;48.140;11.614;2024-01-10T00:49:15;96081.59;;;-2.34;66.56
82379;BME280;72008;48.140;11.614;2024-01-10T00:50:16;96086.00;;;-2.44;66.79
82379;BME280;72008;48.140;11.614;2024-01-10T00:51:17;96082.66;;;-2.35;66.32
82379;BME280;72008;48.140;11.614;2024-01-10T00:52:17;96092.94;;;-2.26;66.59
82379;BME280;72008;48.140;11.614;2024-01-10T00:53:18;96084.47;;;-2.57;67.04
82379;BME280;72008;48.140;11.614;2024-01-10T00:54:18;96093.16;;;-2.50;67.17
82379;BME280;72008;48.140;11.614;2024-01-10T00:55:18;96086.41;;;-2.36;66.82
82379;BME280;72008;48.140;11.614;2024-01-10T00:56:19;96088.41;;;-2.43;67.83
82379;BME280;72008;48.140;11.614;2024-01-10T00:57:19;96089.06;;;-2.36;67.42
82379;BME280;72008;48.140;11.614;2024-01-10T00:58:20;96088.59;;;-2.33;66.91
82379;BME280;72008;48.140;11.614;2024-01-10T00:59:20;96090.19;;;-2.32;67.73
82379;BME280;72008;48.140;11.614;2024-01-10T01:00:21;96086.09;;;-2.17;67.41
82379;BME280;72008;48.140;11.614;2024-01-10T01:01:21;96092.59;;;-2.13;67.04
82379;BME280;72008;48.140;11.614;2024-01-10T01:02:21;96086.22;;;-2.46;66.81
82379;BME280;72008;48.140;11.614;2024-01-10T01:03:22;96088.19;;;-2.58;67.70
82379;BME280;72008;48.140;11.614;2024-01-10T01:04:22;96094.63;;;-2.42;67.18
82379;BME280;72008;48.140;11.614;2024-01-10T01:05:23;96091.84;;;-2.31;68.76
82379;BME280;72008;48.140;11.614;2024-01-10T01:06:23;96091.44;;;-2.39;67.33
82379;BME280;72008;48.140;11.614;2024-01-10T01:07:24;96087.28;;;-2.30;67.95
82379;BME280;72008;48.140;11.614;2024-01-10T01:08:24;96091.97;;;-2.20;66.84
82379;BME280;72008;48.140;11.614;2024-01-10T01:09:25;96090.16;;;-2.15;66.21
82379;BME280;72008;48.140;11.614;2024-01-10T01:10:25;96083.31;;;-2.06;66.76
82379;BME280;72008;48.140;11.614;2024-01-10T01:11:25;96087.88;;;-2.06;66.54
82379;BME280;72008;48.140;11.614;2024-01-10T01:12:26;96089.47;;;-2.05;67.24
82379;BME280;72008;48.140;11.614;2024-01-10T01:13:26;96088.09;;;-2.30;67.25
82379;BME280;72008;48.140;11.614;2024-01-10T01:14:27;96088.28;;;-2.36;67.52
82379;BME280;72008;48.140;11.614;2024-01-10T01:15:27;96090.69;;;-2.35;67.74
82379;BME280;72008;48.140;11.614;2024-01-10T01:16:28;96095.31;;;-2.30;67.51
82379;BME280;72008;48.140;11.614;2024-01-10T01:17:28;96098.16;;;-2.37;67.37
82379;BME280;72008;48.140;11.614;2024-01-10T01:18:28;96099.78;;;-2.36;67.59
82379;BME280;72008;48.140;11.614;2024-01-10T01:19:29;96097.75;;;-2.29;67.60
82379;BME280;72008;48.140;11.614;2024-01-10T01:20:29;96090.78;;;-2.08;67.25
82379;BME280;72008;48.140;11.614;2024-01-10T01:21:30;96092.75;;;-2.03;66.64
82379;BME280;72008;48.140;11.614;2024-01-10T01:22:31;96102.31;;;-2.07;67.10
82379;BME280;72008;48.140;11.614;2024-01-10T01:23:31;96095.75;;;-2.16;67.97
82379;BME280;72008;48.140;11.614;2024-01-10T01:24:32;96096.41;;;-2.09;67.92
82379;BME280;72008;48.140;11.614;2024-01-10T01:25:32;96092.28;;;-2.17;67.60
82379;BME280;72008;48.140;11.614;2024-01-10T01:26:32;96087.09;;;-2.23;67.51
82379;BME280;72008;48.140;11.614;2024-01-10T01:27:33;96097.44;;;-2.10;67.86
82379;BME280;72008;48.140;11.614;2024-01-10T01:28:33;96089.09;;;-2.14;67.16
82379;BME280;72008;48.140;11.614;2024-01-10T01:29:34;96098.63;;;-2.23;67.00
82379;BME280;72008;48.140;11.614;2024-01-10T01:30:34;96100.50;;;-2.23;67.15
82379;BME280;72008;48.140;11.614;2024-01-10T01:31:34;96100.38;;;-2.34;67.64
82379;BME280;72008;48.140;11.614;2024-01-10T01:32:35;96104.50;;;-2.26;67.78
82379;BME280;72008;48.140;11.614;2024-01-10T01:33:35;96101.56;;;-2.24;67.81
82379;BME280;72008;48.140;11.614;2024-01-10T01:34:36;96097.25;;;-2.25;67.92
82379;BME280;72008;48.140;11.614;2024-01-10T01:35:36;96107.91;;;-2.31;67.19
82379;BME280;72008;48.140;11.614;2024-01-10T01:36:37;96098.69;;;-2.57;68.11
82379;BME280;72008;48.140;11.614;2024-01-10T01:37:37;96105.25;;;-2.47;68.24
82379;BME280;72008;48.140;11.614;2024-01-10T01:38:37;96103.06;;;-2.34;67.96
82379;BME280;72008;48.140;11.614;2024-01-10T01:39:38;96106.28;;;-2.32;68.08
82379;BME280;72008;48.140;11.614;2024-01-10T01:40:38;96105.38;;;-2.20;68.52
82379;BME280;72008;48.140;11.614;2024-01-10T01:41:39;96108.88;;;-2.20;68.06
82379;BME280;72008;48.140;11.614;2024-01-10T01:42:40;96105.56;;;-2.05;67.85
82379;BME280;72008;48.140;11.614;2024-01-10T01:43:40;96114.69;;;-2.06;67.90
82379;BME280;72008;48.140;11.614;2024-01-10T01:44:41;96115.88;;;-1.97;66.93
82379;BME280;72008;48.140;11.614;2024-01-10T01:45:41;96109.53;;;-1.91;67.85
82379;BME280;72008;48.140;11.614;2024-01-10T01:46:42;96109.72;;;-1.97;67.09
82379;BME280;72008;48.140;11.614;2024-01-10T01:47:42;96110.09;;;-1.89;67.25
82379;BME280;72008;48.140;11.614;2024-01-10T01:48:43;96114.41;;;-1.88;66.98
82379;BME280;72008;48.140;11.614;2024-01-10T01:49:44;96115.78;;;-1.85;67.60
82379;BME280;72008;48.140;11.614;2024-01-10T01:50:45;96115.84;;;-1.80;66.93
82379;BME280;72008;48.140;11.614;2024-01-10T01:51:47;96120.53;;;-1.92;67.26
82379;BME280;72008;48.140;11.614;2024-01-10T01:52:50;96122.88;;;-1.96;67.79
82379;BME280;72008;48.140;11.614;2024-01-10T01:53:50;96125.16;;;-2.04;67.84
82379;BME280;72008;48.140;11.614;2024-01-10T01:54:51;96118.31;;;-1.95;68.24
82379;BME280;72008;48.140;11.614;2024-01-10T01:55:52;96119.16;;;-1.95;68.22
82379;BME280;72008;48.140;11.614;2024-01-10T01:56:52;96115.38;;;-1.94;66.99
82379;BME280;72008;48.140;11.614;2024-01-10T01:57:53;96116.00;;;-1.87;67.58
82379;BME280;72008;48.140;11.614;2024-01-10T01:58:54;96116.19;;;-2.15;68.04
82379;BME280;72008;48.140;11.614;2024-01-10T01:59:56;96120.41;;;-2.19;67.75
82379;BME280;72008;48.140;11.614;2024-01-10T02:00:57;96126.59;;;-2.36;67.55
82379;BME280;72008;48.140;11.614;2024-01-10T02:02:01;96118.16;;;-2.27;68.05
82379;BME280;72008;48.140;11.614;2024-01-10T02:03:04;96118.66;;;-2.31;67.34
82379;BME280;72008;48.140;11.614;2024-01-10T02:04:05;96116.56;;;-2.62;68.41
82379;BME280;72008;48.140;11.614;2024-01-10T02:05:06;96117.09;;;-2.43;68.60
82379;BME280;72008;48.140;11.614;2024-01-10T02:06:07;96114.59;;;-2.50;67.80
82379;BME280;72008;48.140;11.614;2024-01-10T02:07:07;96112.06;;;-2.40;67.48
82379;BME280;72008;48.140;11.614;2024-01-10T02:08:08;96113.09;;;-2.24;68.90
82379;BME280;72008;48.140;11.614;2024-01-10T02:09:09;96112.94;;;-2.17;69.11
82379;BME280;72008;48.140;11.614;2024-01-10T02:10:09;96107.22;;;-2.04;68.92
82379;BME280;72008;48.140;11.614;2024-01-10T02:11:10;96106.38;;;-2.04;67.08
82379;BME280;72008;48.140;11.614;2024-01-10T02:12:10;96106.97;;;-2.02;67.61
82379;BME280;72008;48.140;11.614;2024-01-10T02:13:12;96101.47;;;-1.91;67.53
82379;BME280;72008;48.140;11.614;2024-01-10T02:14:12;96099.28;;;-1.94;67.68
82379;BME280;72008;48.140;11.614;2024-01-10T02:15:14;96103.25;;;-1.79;67.21
82379;BME280;72008;48.140;11.614;2024-01-10T02:16:14;96108.28;;;-1.83;67.83
82379;BME280;72008;48.140;11.614;2024-01-10T02:17:15;96106.03;;;-1.91;67.84
82379;BME280;72008;48.140;11.614;2024-01-10T02:18:15;96100.53;;;-2.01;67.65
82379;BME280;72008;48.140;11.614;2024-01-10T02:19:23;96114.69;;;-2.06;67.86
82379;BME280;72008;48.140;11.614;2024-01-10T02:20:24;96107.25;;;-2.21;68.13
82379;BME280;72008;48.140;11.614;2024-01-10T02:21:24;96098.81;;;-2.30;67.91
82379;BME280;72008;48.140;11.614;2024-01-10T02:22:24;96111.41;;;-2.47;68.41
82379;BME280;72008;48.140;11.614;2024-01-10T02:23:25;96103.47;;;-2.59;68.55
82379;BME280;72008;48.140;11.614;2024-01-10T02:24:25;96109.22;;;-2.33;68.19
82379;BME280;72008;48.140;11.614;2024-01-10T02:25:26;96110.06;;;-2.11;68.27
82379;BME280;72008;48.140;11.614;2024-01-10T02:26:26;96113.19;;;-1.97;68.98
82379;BME280;72008;48.140;11.614;2024-01-10T02:27:27;96110.84;;;-1.93;68.04
82379;BME280;72008;48.140;11.614;2024-01-10T02:28:28;96118.88;;;-1.93;67.41
82379;BME280;72008;48.140;11.614;2024-01-10T02:29:28;96112.59;;;-2.04;67.66
82379;BME280;72008;48.140;11.614;2024-01-10T02:30:30;96105.94;;;-2.18;67.63
82379;BME280;72008;48.140;11.614;2024-01-10T02:31:30;96114.03;;;-2.13;68.19
82379;BME280;72008;48.140;11.614;2024-01-10T02:32:31;96117.38;;;-2.06;67.86
82379;BME280;72008;48.140;11.614;2024-01-10T02:33:31;96114.31;;;-1.93;67.48
82379;BME280;72008;48.140;11.614;2024-01-10T02:34:32;96121.94;;;-1.85;66.70
82379;BME280;72008;48.140;11.614;2024-01-10T02:35:32;96115.69;;;-1.90;67.37
82379;BME280;72008;48.140;11.614;2024-01-10T02:36:33;96119.66;;;-1.76;67.17
82379;BME280;72008;48.140;11.614;2024-01-10T02:37:33;96122.72;;;-1.67;67.95
82379;BME280;72008;48.140;11.614;2024-01-10T02:38:34;96118.66;;;-1.70;68.12
82379;BME280;72008;48.140;11.614;2024-01-10T02:39:34;96118.06;;;-1.72;67.51
82379;BME280;72008;48.140;11.614;2024-01-10T02:40:34;96118.16;;;-1.89;67.53
82379;BME280;72008;48.140;11.614;2024-01-10T02:41:35;96118.84;;;-1.76;68.19
82379;BME280;72008;48.140;11.614;2024-01-10T02:42:35;96119.72;;;-1.71;68.38
82379;BME280;72008;48.140;11.614;2024-01-10T02:43:36;96120.59;;;-1.65;67.97
82379;BME280;72008;48.140;11.614;2024-01-10T02:44:36;96117.22;;;-1.77;67.83
82379;BME280;72008;48.140;11.614;2024-01-10T02:45:37;96124.13;;;-1.81;67.51
82379;BME280;72008;48.140;11.614;2024-01-10T02:46:37;96124.78;;;-1.74;68.55
82379;BME280;72008;48.140;11.614;2024-01-10T02:47:37;96119.75;;;-1.66;67.78
82379;BME280;72008;48.140;11.614;2024-01-10T02:48:38;96118.94;;;-1.66;67.83
82379;BME280;72008;48.140;11.614;2024-01-10T02:49:38;96128.38;;;-1.64;67.16
82379;BME280;72008;48.140;11.614;2024-01-10T02:50:39;96125.13;;;-1.66;67.42
82379;BME280;72008;48.140;11.614;2024-01-10T02:51:39;96119.75;;;-1.66;67.68
82379;BME280;72008;48.140;11.614;2024-01-10T02:52:40;96121.94;;;-1.85;67.30
82379;BME280;72008;48.140;11.614;2024-01-10T02:53:40;96118.84;;;-1.76;67.79
82379;BME280;72008;48.140;11.614;2024-01-10T02:54:41;96113.97;;;-1.79;67.44
82379;BME280;72008;48.140;11.614;2024-01-10T02:55:43;96115.34;;;-1.77;68.01
82379;BME280;72008;48.140;11.614;2024-01-10T02:56:43;96115.28;;;-1.82;67.37
82379;BME280;72008;48.140;11.614;2024-01-10T02:57:44;96110.78;;;-1.76;68.70
82379;BME280;72008;48.140;11.614;2024-01-10T02:58:44;96112.28;;;-1.86;67.47
82379;BME280;72008;48.140;11.614;2024-01-10T02:59:44;96111.22;;;-1.85;67.52
82379;BME280;72008;48.140;11.614;2024-01-10T03:00:45;96106.72;;;-1.79;67.74
82379;BME280;72008;48.140;11.614;2024-01-10T03:01:45;96107.53;;;-1.78;67.82
82379;BME280;72008;48.140;11.614;2024-01-10T03:02:46;96107.91;;;-1.70;67.70
82379;BME280;72008;48.140;11.614;2024-01-10T03:03:46;96106.00;;;-1.74;67.87
82379;BME280;72008;48.140;11.614;2024-01-10T03:04:47;96103.44;;;-1.86;68.07
82379;BME280;72008;48.140;11.614;2024-01-10T03:05:48;96111.09;;;-1.95;67.96
82379;BME280;72008;48.140;11.614;2024-01-10T03:06:48;96108.44;;;-2.12;68.50
82379;BME280;72008;48.140;11.614;2024-01-10T03:07:48;96108.03;;;-2.03;68.89
82379;BME280;72008;48.140;11.614;2024-01-10T03:08:49;96102.72;;;-1.98;67.77
82379;BME280;72008;48.140;11.614;2024-01-10T03:09:49;96107.91;;;-1.92;68.77
82379;BME280;72008;48.140;11.614;2024-01-10T03:10:50;96107.25;;;-1.99;68.13
82379;BME280;72008;48.140;11.614;2024-01-10T03:11:50;96108.94;;;-1.93;68.60
82379;BME280;72008;48.140;11.614;2024-01-10T03:12:51;96104.59;;;-1.99;67.44
82379;BME280;72008;48.140;11.614;2024-01-10T03:14:01;96103.59;;;-1.93;69.38
82379;BME280;72008;48.140;11.614;2024-01-10T03:15:02;96104.22;;;-1.86;67.78
82379;BME280;72008;48.140;11.614;2024-01-10T03:16:03;96101.81;;;-2.26;68.46
82379;BME280;72008;48.140;11.614;2024-01-10T03:17:03;96100.56;;;-2.57;68.35
82379;BME280;72008;48.140;11.614;2024-01-10T03:18:04;96100.88;;;-2.54;68.78
82379;BME280;72008;48.140;11.614;2024-01-10T03:19:04;96107.75;;;-2.41;69.38
82379;BME280;72008;48.140;11.614;2024-01-10T03:20:05;96111.25;;;-2.40;69.25
82379;BME280;72008;48.140;11.614;2024-01-10T03:21:06;96100.03;;;-2.37;68.87
82379;BME280;72008;48.140;11.614;2024-01-10T03:22:06;96100.00;;;-2.20;69.15
82379;BME280;72008;48.140;11.614;2024-01-10T03:23:07;96109.88;;;-2.77;68.44
82379;BME280;72008;48.140;11.614;2024-01-10T03:24:08;96098.34;;;-2.94;69.78
82379;BME280;72008;48.140;11.614;2024-01-10T03:25:08;96110.88;;;-2.83;69.50
82379;BME280;72008;48.140;11.614;2024-01-10T03:26:09;96097.63;;;-2.72;69.36
82379;BME280;72008;48.140;11.614;2024-01-10T03:27:10;96100.66;;;-2.69;68.90
82379;BME280;72008;48.140;11.614;2024-01-10T03:28:10;96098.59;;;-2.62;68.82
82379;BME280;72008;48.140;11.614;2024-01-10T03:29:11;96100.16;;;-2.66;68.95
82379;BME280;72008;48.140;11.614;2024-01-10T03:30:11;96094.84;;;-2.61;68.92
82379;BME280;72008;48.140;11.614;2024-01-10T03:31:12;96099.66;;;-2.80;68.60
82379;BME280;72008;48.140;11.614;2024-01-10T03:32:12;96102.09;;;-2.95;69.53
82379;BME280;72008;48.140;11.614;2024-01-10T03:33:13;96098.69;;;-2.73;69.10
82379;BME280;72008;48.140;11.614;2024-01-10T03:34:13;96094.13;;;-3.07;69.25
82379;BME280;72008;48.140;11.614;2024-01-10T03:35:13;96091.38;;;-2.95;70.21
82379;BME280;72008;48.140;11.614;2024-01-10T03:36:17;96099.38;;;-3.12;69.00
82379;BME280;72008;48.140;11.614;2024-01-10T03:37:18;96102.22;;;-3.18;69.75
82379;BME280;72008;48.140;11.614;2024-01-10T03:38:18;96092.84;;;-3.33;70.58
82379;BME280;72008;48.140;11.614;2024-01-10T03:39:18;96087.78;;;-3.01;71.20
82379;BME280;72008;48.140;11.614;2024-01-10T03:40:19;96092.66;;;-2.98;69.99
82379;BME280;72008;48.140;11.614;2024-01-10T03:41:20;96088.22;;;-2.92;69.36
82379;BME280;72008;48.140;11.614;2024-01-10T03:42:21;96097.22;;;-2.81;69.39
82379;BME280;72008;48.140;11.614;2024-01-10T03:43:21;96096.00;;;-3.07;69.53
82379;BME280;72008;48.140;11.614;2024-01-10T03:44:22;96089.81;;;-3.08;69.48
82379;BME280;72008;48.140;11.614;2024-01-10T03:45:22;96092.81;;;-3.50;69.96
82379;BME280;72008;48.140;11.614;2024-01-10T03:46:22;96085.69;;;-3.44;70.43
82379;BME280;72008;48.140;11.614;2024-01-10T03:47:23;96094.78;;;-3.45;70.39
82379;BME280;72008;48.140;11.614;2024-01-10T03:48:24;96092.00;;;-3.05;70.90
82379;BME280;72008;48.140;11.614;2024-01-10T03:49:24;96089.72;;;-2.96;69.28
82379;BME280;72008;48.140;11.614;2024-01-10T03:50:25;96084.22;;;-2.72;69.47
82379;BME280;72008;48.140;11.614;2024-01-10T03:51:25;96087.38;;;-2.59;69.45
82379;BME280;72008;48.140;11.614;2024-01-10T03:52:26;96079.66;;;-2.55;68.94
82379;BME280;72008;48.140;11.614;2024-01-10T03:53:26;96087.06;;;-2.62;68.10
82379;BME280;72008;48.140;11.614;2024-01-10T03:54:27;96088.94;;;-2.80;68.94
82379;BME280;72008;48.140;11.614;2024-01-10T03:55:27;96093.31;;;-3.07;70.18
82379;BME280;72008;48.140;11.614;2024-01-10T03:56:28;96092.00;;;-2.88;69.70
82379;BME280;72008;48.140;11.614;2024-01-10T03:57:28;96087.06;;;-2.62;68.71
82379;BME280;72008;48.140;11.614;2024-01-10T03:58:29;96083.25;;;-2.66;69.08
82379;BME280;72008;48.140;11.614;2024-01-10T03:59:29;96084.31;;;-3.01;69.42
82379;BME280;72008;48.140;11.614;2024-01-10T04:00:29;96086.09;;;-2.73;69.17
82379;BME280;72008;48.140;11.614;2024-01-10T04:01:30;96090.06;;;-3.09;69.58
82379;BME280;72008;48.140;11.614;2024-01-10T04:02:30;96083.25;;;-3.00;69.20
82379;BME280;72008;48.140;11.614;2024-01-10T04:03:31;96087.97;;;-2.73;69.67
82379;BME280;72008;48.140;11.614;2024-01-10T04:04:31;96089.56;;;-2.72;68.87
82379;BME280;72008;48.140;11.614;2024-01-10T04:05:32;96085.09;;;-2.50;69.47
82379;BME280;72008;48.140;11.614;2024-01-10T04:06:32;96086.41;;;-2.36;67.96
82379;BME280;72008;48.140;11.614;2024-01-10T04:07:32;96090.38;;;-2.55;69.06
82379;BME280;72008;48.140;11.614;2024-01-10T04:08:33;96081.63;;;-2.50;68.41
82379;BME280;72008;48.140;11.614;2024-01-10T04:09:33;96083.44;;;-2.34;68.64
82379;BME280;72008;48.140;11.614;2024-01-10T04:10:34;96084.03;;;-2.32;68.56
82379;BME280;72008;48.140;11.614;2024-01-10T04:11:34;96084.41;;;-2.23;68.21
82379;BME280;72008;48.140;11.614;2024-01-10T04:12:34;96085.41;;;-2.30;68.25
82379;BME280;72008;48.140;11.614;2024-01-10T04:13:35;96083.91;;;-2.42;68.18
82379;BME280;72008;48.140;11.614;2024-01-10T04:14:35;96079.56;;;-2.43;68.24
82379;BME280;72008;48.140;11.614;2024-01-10T04:15:36;96087.16;;;-2.57;68.32
82379;BME280;72008;48.140;11.614;2024-01-10T04:16:36;96079.75;;;-2.67;68.72
82379;BME280;72008;48.140;11.614;2024-01-10T04:17:37;96079.59;;;-2.60;68.28
82379;BME280;72008;48.140;11.614;2024-01-10T04:18:37;96083.19;;;-2.71;68.38
82379;BME280;72008;48.140;11.614;2024-01-10T04:19:38;96081.00;;;-2.75;68.43
82379;BME280;72008;48.140;11.614;2024-01-10T04:20:38;96078.13;;;-2.85;69.02
82379;BME280;72008;48.140;11.614;2024-01-10T04:21:39;96080.91;;;-3.13;69.04
82379;BME280;72008;48.140;11.614;2024-01-10T04:22:39;96075.44;;;-3.18;69.43
82379;BME280;72008;48.140;11.614;2024-01-10T04:23:40;96078.63;;;-2.88;69.80
82379;BME280;72008;48.140;11.614;2024-01-10T04:24:40;96089.59;;;-2.89;68.79
82379;BME280;72008;48.140;11.614;2024-01-10T04:25:40;96089.47;;;-3.28;69.62
82379;BME280;72008;48.140;11.614;2024-01-10T04:26:41;96082.84;;;-3.09;70.24
82379;BME280;72008;48.140;11.614;2024-01-10T04:27:41;96087.19;;;-3.20;69.48
82379;BME280;72008;48.140;11.614;2024-01-10T04:28:42;96091.19;;;-3.05;69.18
82379;BME280;72008;48.140;11.614;2024-01-10T04:29:42;96087.47;;;-3.04;69.31
82379;BME280;72008;48.140;11.614;2024-01-10T04:30:42;96083.25;;;-2.83;69.47
82379;BME280;72008;48.140;11.614;2024-01-10T04:31:43;96088.19;;;-2.58;69.04
82379;BME280;72008;48.140;11.614;2024-01-10T04:32:44;96084.28;;;-2.34;69.55
82379;BME280;72008;48.140;11.614;2024-01-10T04:33:44;96090.31;;;-2.94;68.80
82379;BME280;72008;48.140;11.614;2024-01-10T04:34:47;96072.69;;;-2.90;69.38
82379;BME280;72008;48.140;11.614;2024-01-10T04:35:48;96076.25;;;-2.67;68.61
82379;BME280;72008;48.140;11.614;2024-01-10T04:36:48;96078.44;;;-2.47;68.14
82379;BME280;72008;48.140;11.614;2024-01-10T04:37:49;96080.50;;;-2.71;68.44
82379;BME280;72008;48.140;11.614;2024-01-10T04:38:49;96077.06;;;-2.67;68.67
82379;BME280;72008;48.140;11.614;2024-01-10T04:39:50;96081.94;;;-2.64;68.80
82379;BME280;72008;48.140;11.614;2024-01-10T04:40:50;96081.41;;;-2.66;68.75
82379;BME280;72008;48.140;11.614;2024-01-10T04:41:51;96081.06;;;-2.86;68.74
82379;BME280;72008;48.140;11.614;2024-01-10T04:42:51;96083.31;;;-3.12;68.75
82379;BME280;72008;48.140;11.614;2024-01-10T04:43:52;96082.50;;;-2.79;69.41
82379;BME280;72008;48.140;11.614;2024-01-10T04:44:52;96083.66;;;-2.91;69.36
82379;BME280;72008;48.140;11.614;2024-01-10T04:45:52;96087.06;;;-2.96;69.63
82379;BME280;72008;48.140;11.614;2024-01-10T04:46:53;96086.56;;;-2.76;69.00
82379;BME280;72008;48.140;11.614;2024-01-10T04:47:53;96086.56;;;-2.76;68.92
82379;BME280;72008;48.140;11.614;2024-01-10T04:48:54;96078.53;;;-2.76;68.73
82379;BME280;72008;48.140;11.614;2024-01-10T04:50:13;96083.19;;;-2.71;68.52
82379;BME280;72008;48.140;11.614;2024-01-10T04:51:13;96081.13;;;-2.81;69.04
82379;BME280;72008;48.140;11.614;2024-01-10T04:52:14;96078.03;;;-2.90;69.16
82379;BME280;72008;48.140;11.614;2024-01-10T04:53:14;96077.97;;;-2.95;68.94
82379;BME280;72008;48.140;11.614;2024-01-10T04:54:14;96084.16;;;-2.78;68.94
82379;BME280;72008;48.140;11.614;2024-01-10T04:55:15;96082.44;;;-2.67;69.05
82379;BME280;72008;48.140;11.614;2024-01-10T04:56:15;96084.22;;;-2.56;68.93
82379;BME280;72008;48.140;11.614;2024-01-10T04:57:16;96090.09;;;-2.37;69.39
82379;BME280;72008;48.140;11.614;2024-01-10T04:58:16;96092.44;;;-2.62;68.88
82379;BME280;72008;48.140;11.614;2024-01-10T04:59:17;96093.00;;;-2.60;68.33
82379;BME280;72008;48.140;11.614;2024-01-10T05:00:17;96086.81;;;-2.44;69.15
82379;BME280;72008;48.140;11.614;2024-01-10T05:01:18;96087.66;;;-2.60;68.24
82379;BME280;72008;48.140;11.614;2024-01-10T05:02:18;96088.47;;;-2.60;68.57
82379;BME280;72008;48.140;11.614;2024-01-10T05:03:19;96080.47;;;-2.55;69.06
82379;BME280;72008;48.140;11.614;2024-01-10T05:04:19;96089.34;;;-2.71;68.60
82379;BME280;72008;48.140;11.614;2024-01-10T05:05:20;96090.63;;;-2.90;69.59
82379;BME280;72008;48.140;11.614;2024-01-10T05:06:20;96090.72;;;-2.85;69.06
82379;BME280;72008;48.140;11.614;2024-01-10T05:07:21;96086.84;;;-2.78;68.91
82379;BME280;72008;48.140;11.614;2024-01-10T05:08:21;96088.59;;;-2.66;68.82
82379;BME280;72008;48.140;11.614;2024-01-10T05:09:21;96093.31;;;-2.57;68.59
82379;BME280;72008;48.140;11.614;2024-01-10T05:10:22;96093.56;;;-2.58;69.55
82379;BME280;72008;48.140;11.614;2024-01-10T05:11:22;96090.28;;;-2.43;68.94
82379;BME280;72008;48.140;11.614;2024-01-10T05:12:23;96092.44;;;-2.62;68.10
82379;BME280;72008;48.140;11.614;2024-01-10T05:13:23;96092.91;;;-2.82;68.61
82379;BME280;72008;48.140;11.614;2024-01-10T05:14:24;96093.63;;;-2.70;68.47
82379;BME280;72008;48.140;11.614;2024-01-10T05:15:24;96096.97;;;-3.13;68.77
82379;BME280;72008;48.140;11.614;2024-01-10T05:16:25;96092.91;;;-2.99;69.34
82379;BME280;72008;48.140;11.614;2024-01-10T05:17:25;96090.28;;;-3.11;68.84